Time;durP1;ratioP1;P1;durP2;ratioP2;P2;SDS_P1;SDS_P2;PMS_P1;PMS_P2;Temp;Humidity;BMP_temperature;BMP_pressure;BME280_temperature;BME280_humidity;BME280_pressure;Samples;Min_cycle;Max_cycle;Signal;HPM_P1;HPM_P2
2023/04/17 00:01:19;;;;;;;56.60;25.98;;;;;;;24.56;48.59;98207.47;4817910;29;20042;-62
2023/04/17 00:03:51;;;;;;;51.47;25.67;;;;;;;24.52;48.57;98206.44;4815411;29;20771;-62
2023/04/17 00:06:21;;;;;;;43.00;24.83;;;;;;;24.50;48.46;98197.81;4819182;29;20482;-62
2023/04/17 00:08:50;;;;;;;47.88;25.42;;;;;;;24.49;48.03;98207.03;4804250;29;20061;-64
2023/04/17 00:11:20;;;;;;;56.28;27.45;;;;;;;24.47;48.05;98217.38;4819175;29;20054;-63
2023/04/17 00:13:49;;;;;;;50.15;26.52;;;;;;;24.45;49.03;98214.94;4817907;29;20077;-63
2023/04/17 00:16:19;;;;;;;49.03;26.75;;;;;;;24.40;48.85;98219.63;4819074;29;20050;-61
2023/04/17 00:18:48;;;;;;;46.80;26.13;;;;;;;24.33;48.62;98214.59;4830496;29;20114;-64
2023/04/17 00:21:17;;;;;;;46.53;26.38;;;;;;;24.31;49.63;98224.09;4836088;29;20140;-62
2023/04/17 00:23:47;;;;;;;52.65;27.20;;;;;;;24.32;49.39;98231.13;4837090;29;20050;-63
2023/04/17 00:26:18;;;;;;;49.15;26.73;;;;;;;24.25;49.78;98228.00;4836516;29;20074;-66
2023/04/17 00:28:49;;;;;;;55.95;25.85;;;;;;;24.22;49.09;98225.84;4819720;29;20149;-65
2023/04/17 00:31:18;;;;;;;58.90;26.17;;;;;;;24.19;49.62;98227.25;4818515;29;20094;-65
2023/04/17 00:33:48;;;;;;;58.25;27.25;;;;;;;24.16;49.37;98244.84;4820596;29;20114;-65
2023/04/17 00:36:17;;;;;;;48.70;26.55;;;;;;;24.10;50.18;98243.31;4817824;29;20144;-65
2023/04/17 00:38:47;;;;;;;49.25;25.45;;;;;;;24.06;50.50;98242.28;4833295;29;20062;-61
2023/04/17 00:41:17;;;;;;;44.05;23.42;;;;;;;24.05;49.91;98245.25;4819494;29;20136;-62
2023/04/17 00:43:46;;;;;;;39.67;20.08;;;;;;;24.03;50.05;98250.94;4830275;29;20128;-62
2023/04/17 00:46:15;;;;;;;36.70;18.90;;;;;;;24.04;50.27;98255.28;4837188;29;20130;-62
2023/04/17 00:48:46;;;;;;;31.27;18.63;;;;;;;24.02;50.21;98256.69;4815740;29;20660;-65
2023/04/17 00:51:15;;;;;;;31.92;17.08;;;;;;;24.04;50.59;98265.28;4833737;29;20475;-64
2023/04/17 00:53:48;;;;;;;30.02;16.13;;;;;;;24.02;50.58;98260.19;4835159;29;20770;-62
2023/04/17 00:56:17;;;;;;;29.58;16.05;;;;;;;24.04;50.16;98274.22;4801008;29;20158;-62
2023/04/17 00:58:48;;;;;;;29.08;13.82;;;;;;;24.07;50.23;98267.44;4816175;29;20133;-61
2023/04/17 01:01:17;;;;;;;28.75;13.35;;;;;;;24.07;50.88;98273.66;4809138;29;20057;-63
2023/04/17 01:03:49;;;;;;;23.13;12.18;;;;;;;24.11;50.19;98269.28;4818451;29;20060;-62
2023/04/17 01:06:19;;;;;;;21.92;12.38;;;;;;;24.16;49.99;98271.91;4813808;29;20053;-62
2023/04/17 01:08:48;;;;;;;25.73;12.48;;;;;;;24.22;50.03;98269.97;4818842;29;20057;-65
2023/04/17 01:11:17;;;;;;;23.30;13.15;;;;;;;24.28;50.85;98273.41;4817879;29;20061;-63
2023/04/17 01:13:49;;;;;;;27.70;13.98;;;;;;;24.34;51.20;98274.97;4808449;29;20445;-63
2023/04/17 01:16:18;;;;;;;32.05;14.60;;;;;;;24.37;50.77;98280.59;4818988;29;20149;-64
2023/04/17 01:18:48;;;;;;;29.45;14.88;;;;;;;24.38;50.97;98286.81;4813216;29;20054;-66
2023/04/17 01:21:18;;;;;;;23.77;13.70;;;;;;;24.40;51.42;98290.00;4816308;29;20059;-63
2023/04/17 01:23:51;;;;;;;36.58;15.35;;;;;;;24.44;51.78;98288.31;4816868;29;20118;-64
2023/04/17 01:26:31;;;;;;;30.55;14.70;;;;;;;24.48;52.00;98279.31;4816112;29;20558;-61
2023/04/17 01:29:01;;;;;;;30.30;15.65;;;;;;;24.54;52.50;98294.41;4816746;29;20050;-62
2023/04/17 01:31:30;;;;;;;39.38;16.35;;;;;;;24.60;52.26;98285.13;4816387;29;20055;-63
2023/04/17 01:34:00;;;;;;;33.20;15.23;;;;;;;24.68;51.58;98286.38;4815725;29;20061;-61
2023/04/17 01:36:30;;;;;;;39.50;15.45;;;;;;;24.72;51.12;98289.28;4809003;29;20705;-61
2023/04/17 01:39:00;;;;;;;37.50;17.00;;;;;;;24.78;51.05;98291.63;4814400;29;20054;-62
2023/04/17 01:41:29;;;;;;;30.67;16.55;;;;;;;24.85;50.36;98293.94;4816202;29;20534;-62
2023/04/17 01:43:59;;;;;;;32.22;17.67;;;;;;;24.93;51.03;98291.41;4816219;29;20050;-61
2023/04/17 01:46:29;;;;;;;37.53;17.60;;;;;;;25.04;52.66;98294.78;4816673;29;20058;-60
2023/04/17 01:48:58;;;;;;;33.53;18.20;;;;;;;25.14;52.52;98291.88;4816954;29;20726;-61
2023/04/17 01:51:28;;;;;;;40.70;21.15;;;;;;;25.26;50.56;98299.53;4817148;29;20071;-60
2023/04/17 01:53:59;;;;;;;44.50;23.88;;;;;;;25.36;50.11;98294.72;4815794;29;20054;-62
2023/04/17 01:56:29;;;;;;;50.50;26.08;;;;;;;25.52;50.73;98297.19;4792503;29;20134;-62
2023/04/17 01:58:59;;;;;;;47.85;28.38;;;;;;;25.68;49.64;98291.19;4819553;29;20055;-61
2023/04/17 02:01:28;;;;;;;60.13;32.05;;;;;;;25.85;49.28;98294.13;4812713;29;20120;-62
2023/04/17 02:03:58;;;;;;;67.05;34.92;;;;;;;26.04;47.67;98293.22;4802747;29;20060;-62
2023/04/17 02:06:27;;;;;;;68.13;35.88;;;;;;;26.18;48.35;98299.44;4815985;29;20061;-64
2023/04/17 02:08:58;;;;;;;67.53;34.17;;;;;;;26.30;49.55;98294.31;4815815;29;20769;-62
2023/04/17 02:11:27;;;;;;;65.97;33.90;;;;;;;26.42;49.83;98293.81;4817221;29;20050;-62
2023/04/17 02:13:57;;;;;;;68.85;35.38;;;;;;;26.49;48.33;98292.25;4816236;29;20111;-62
2023/04/17 02:16:27;;;;;;;59.97;32.60;;;;;;;26.66;48.14;98292.41;4815765;29;20060;-61
2023/04/17 02:18:57;;;;;;;64.40;32.53;;;;;;;27.10;45.47;98288.13;4825916;29;20726;-61
2023/04/17 02:21:30;;;;;;;65.63;31.08;;;;;;;27.84;44.02;98288.41;4816043;29;20514;-62
2023/04/17 02:24:00;;;;;;;50.92;26.88;;;;;;;28.45;41.26;98285.53;4816282;29;20066;-60
2023/04/17 02:26:29;;;;;;;47.88;24.02;;;;;;;28.91;39.03;98292.28;4801413;29;20529;-63
2023/04/17 02:28:58;;;;;;;46.25;22.38;;;;;;;29.28;37.88;98296.25;4817260;29;20070;-63
2023/04/17 02:31:28;;;;;;;40.60;22.08;;;;;;;29.40;37.35;98297.19;4805248;29;21028;-61
2023/04/17 02:33:57;;;;;;;40.88;22.17;;;;;;;29.34;37.42;98298.50;4818650;29;20058;-61
2023/04/17 02:36:27;;;;;;;48.22;22.77;;;;;;;29.40;38.29;98307.31;4803854;29;20051;-61
2023/04/17 02:38:56;;;;;;;45.38;24.05;;;;;;;29.47;38.37;98304.91;4819316;29;20706;-62
2023/04/17 02:41:37;;;;;;;44.78;22.83;;;;;;;29.88;37.01;98315.19;4831771;29;20054;-60
2023/04/17 02:44:08;;;;;;;44.17;23.98;;;;;;;30.13;36.98;98308.03;4817831;29;20050;-62
2023/04/17 02:46:38;;;;;;;42.03;23.73;;;;;;;29.77;37.73;98322.13;4808207;29;20151;-62
2023/04/17 02:49:09;;;;;;;40.15;22.35;;;;;;;29.40;39.04;98324.50;4815644;29;20101;-61
2023/04/17 02:51:39;;;;;;;43.13;21.42;;;;;;;29.05;39.16;98328.38;4808303;29;20411;-62
2023/04/17 02:54:09;;;;;;;38.30;19.83;;;;;;;28.85;40.70;98331.75;4809426;29;20047;-64
2023/04/17 02:56:39;;;;;;;31.25;15.88;;;;;;;28.65;40.76;98330.41;4818547;29;20069;-62
2023/04/17 02:59:08;;;;;;;25.83;12.48;;;;;;;28.51;40.22;98330.56;4808717;29;20058;-64
2023/04/17 03:01:39;;;;;;;25.15;11.77;;;;;;;28.48;40.47;98328.47;4811926;29;20078;-63
2023/04/17 03:04:08;;;;;;;23.40;10.52;;;;;;;28.22;40.46;98332.25;4813418;29;20050;-62
2023/04/17 03:06:38;;;;;;;27.58;10.95;;;;;;;28.02;40.70;98337.13;4828997;29;20495;-60
2023/04/17 03:09:11;;;;;;;24.30;11.60;;;;;;;27.89;41.12;98338.03;4819220;29;20054;-61
2023/04/17 03:11:40;;;;;;;34.10;11.02;;;;;;;27.80;41.27;98342.63;4818864;29;20050;-62
2023/04/17 03:14:10;;;;;;;24.65;11.20;;;;;;;27.75;41.52;98342.75;4818535;29;20084;-63
2023/04/17 03:16:39;;;;;;;26.77;11.75;;;;;;;27.74;42.51;98341.19;4819369;29;20062;-64
2023/04/17 03:19:09;;;;;;;28.98;13.45;;;;;;;27.66;42.91;98336.50;4831203;29;20062;-61
2023/04/17 03:21:39;;;;;;;33.85;14.30;;;;;;;27.66;41.33;98340.00;4817451;29;20062;-62
2023/04/17 03:24:11;;;;;;;40.08;14.10;;;;;;;27.60;41.46;98343.19;4818813;29;20052;-62
2023/04/17 03:26:41;;;;;;;26.88;12.93;;;;;;;27.63;41.59;98334.41;4820906;29;20521;-62
2023/04/17 03:29:16;;;;;;;30.50;12.27;;;;;;;27.64;40.92;98336.81;4808551;29;20072;-61
2023/04/17 03:31:45;;;;;;;23.95;12.50;;;;;;;27.70;41.06;98329.31;4810544;29;20053;-61
2023/04/17 03:34:20;;;;;;;25.85;12.88;;;;;;;27.87;41.76;98336.75;4820217;29;20057;-63
2023/04/17 03:36:50;;;;;;;31.80;13.20;;;;;;;28.06;42.92;98342.72;4823290;29;20054;-62
2023/04/17 03:39:20;;;;;;;32.20;11.88;;;;;;;28.11;41.55;98339.91;4836845;29;20053;-65
2023/04/17 03:41:50;;;;;;;24.55;12.18;;;;;;;28.15;41.15;98338.16;4791503;29;20062;-61
2023/04/17 03:44:19;;;;;;;30.95;10.63;;;;;;;28.19;40.78;98336.44;4833182;29;20054;-60
2023/04/17 03:46:49;;;;;;;26.13;10.63;;;;;;;28.33;41.83;98341.72;4821320;29;20046;-61
2023/04/17 03:49:19;;;;;;;27.98;10.68;;;;;;;28.28;41.98;98341.91;4821229;29;20058;-61
2023/04/17 03:51:50;;;;;;;22.83;10.30;;;;;;;28.38;42.68;98347.03;4821712;29;20145;-62
2023/04/17 03:54:21;;;;;;;19.85;9.63;;;;;;;28.44;43.38;98351.22;4821051;29;20146;-61
2023/04/17 03:56:53;;;;;;;21.67;8.95;;;;;;;28.40;42.30;98342.09;4821924;29;20054;-62
2023/04/17 03:59:23;;;;;;;21.60;9.50;;;;;;;28.37;42.38;98350.91;4820313;29;20134;-61
2023/04/17 04:01:53;;;;;;;25.52;7.90;;;;;;;28.41;41.47;98341.75;4820202;29;20065;-61
2023/04/17 04:04:24;;;;;;;19.70;8.43;;;;;;;28.57;42.66;98351.09;4820615;29;20058;-61
2023/04/17 04:07:03;;;;;;;21.13;7.95;;;;;;;28.68;41.09;98348.06;4811203;29;20080;-61
2023/04/17 04:09:34;;;;;;;20.88;7.50;;;;;;;28.81;40.18;98350.66;4832408;29;20106;-61
2023/04/17 04:12:05;;;;;;;18.70;7.32;;;;;;;28.98;40.84;98361.59;4820054;29;20050;-60
2023/04/17 04:14:39;;;;;;;15.30;7.97;;;;;;;29.13;40.43;98360.28;4831946;29;20050;-61
2023/04/17 04:17:10;;;;;;;18.73;7.43;;;;;;;29.08;40.14;98362.38;4826576;29;20057;-61
2023/04/17 04:19:41;;;;;;;21.50;7.05;;;;;;;29.11;42.01;98368.00;4799762;29;20059;-60
2023/04/17 04:22:12;;;;;;;19.52;6.60;;;;;;;29.17;42.58;98366.69;4802683;29;20167;-61
2023/04/17 04:24:48;;;;;;;17.40;6.72;;;;;;;29.22;41.83;98373.91;4817746;29;20105;-62
2023/04/17 04:27:21;;;;;;;22.05;6.50;;;;;;;29.37;40.52;98368.81;4817749;29;20145;-64
2023/04/17 04:29:57;;;;;;;18.23;7.45;;;;;;;29.61;39.68;98364.75;4817473;29;20141;-63
2023/04/17 04:32:32;;;;;;;19.83;7.78;;;;;;;29.85;38.76;98376.72;4816041;29;20063;-62
2023/04/17 04:35:03;;;;;;;21.95;7.80;;;;;;;30.06;39.43;98373.28;4823306;29;20115;-63
2023/04/17 04:37:32;;;;;;;24.92;8.05;;;;;;;30.15;39.09;98371.31;4817647;29;20158;-61
2023/04/17 04:40:10;;;;;;;17.25;7.03;;;;;;;30.24;38.27;98372.88;4815704;29;20077;-60
2023/04/17 04:42:41;;;;;;;27.98;8.02;;;;;;;30.55;37.51;98371.78;4835292;29;20054;-62
2023/04/17 04:45:16;;;;;;;17.58;6.82;;;;;;;30.82;36.66;98375.94;4814870;29;20050;-61
2023/04/17 04:47:45;;;;;;;14.20;6.25;;;;;;;30.62;36.96;98369.34;4810176;29;20562;-61
2023/04/17 04:50:15;;;;;;;18.10;7.10;;;;;;;30.79;37.13;98369.22;4820395;29;20099;-61
2023/04/17 04:52:44;;;;;;;24.13;6.93;;;;;;;30.94;37.94;98376.81;4810554;29;20047;-60
2023/04/17 04:55:29;;;;;;;23.70;7.77;;;;;;;30.89;38.31;98377.00;4813636;29;20058;-60
2023/04/17 04:57:58;;;;;;;18.80;7.18;;;;;;;31.05;37.63;98363.56;4809389;29;20047;-63
2023/04/17 05:00:28;;;;;;;21.88;8.20;;;;;;;31.10;37.21;98371.59;4807997;29;20101;-62
2023/04/17 05:03:00;;;;;;;20.77;7.22;;;;;;;31.36;38.91;98374.88;4800819;29;20047;-63
2023/04/17 05:05:30;;;;;;;25.83;7.55;;;;;;;31.61;39.68;98373.03;4805459;29;20122;-62
2023/04/17 05:08:00;;;;;;;18.45;7.10;;;;;;;31.65;38.21;98379.44;4800896;29;20101;-61
2023/04/17 05:10:32;;;;;;;;;;;;;;;31.83;35.89;98377.31;4848024;29;20062;-62
2023/04/17 05:13:04;;;;;;;17.52;6.50;;;;;;;31.69;36.34;98379.59;4823402;29;20350;-61
2023/04/17 05:15:35;;;;;;;23.67;6.90;;;;;;;31.92;36.71;98370.59;4811621;29;20130;-59
2023/04/17 05:18:04;;;;;;;24.73;7.38;;;;;;;31.84;35.96;98374.25;4827234;29;20158;-60
2023/04/17 05:21:32;;;;;;;14.88;6.63;;;;;;;32.10;35.88;98373.97;4810906;29;20142;-59
2023/04/17 05:25:00;;;;;;;15.65;6.18;;;;;;;32.11;36.00;98372.81;4603779;29;20406;-61
2023/04/17 05:28:28;;;;;;;14.38;5.43;;;;;;;32.43;34.21;98368.38;4811797;29;20481;-59
2023/04/17 06:21:10;;;;;;;12.65;4.03;;;;;;;36.52;25.75;98353.69;4804014;29;20066;-57
2023/04/17 06:23:39;;;;;;;12.50;5.15;;;;;;;36.35;25.38;98352.28;4818920;29;20078;-59
2023/04/17 06:26:09;;;;;;;12.55;4.32;;;;;;;36.48;27.28;98350.88;4815129;29;20046;-58
2023/04/17 06:28:39;;;;;;;14.70;4.97;;;;;;;36.00;28.27;98346.97;4815305;29;20065;-58
2023/04/17 06:31:09;;;;;;;13.65;4.53;;;;;;;35.57;30.47;98345.41;4815373;29;20123;-59
2023/04/17 06:33:39;;;;;;;11.82;4.63;;;;;;;35.62;31.14;98349.81;4815792;29;20074;-56
2023/04/17 06:36:09;;;;;;;14.73;5.35;;;;;;;35.37;25.72;98346.56;4815779;29;20062;-58
2023/04/17 06:38:55;;;;;;;13.00;5.05;;;;;;;35.22;29.87;98346.69;4815851;29;20539;-58
2023/04/17 06:41:24;;;;;;;16.42;4.80;;;;;;;35.46;27.31;98335.31;4815702;29;20069;-55
2023/04/17 06:43:53;;;;;;;17.38;5.65;;;;;;;35.61;29.03;98339.94;4815711;29;20062;-58
2023/04/17 06:46:23;;;;;;;21.08;4.90;;;;;;;35.56;28.94;98327.25;4813742;29;20554;-60
2023/04/17 06:48:56;;;;;;;14.27;4.78;;;;;;;35.79;22.74;98327.31;4812885;29;20065;-59
2023/04/17 06:51:28;;;;;;;14.40;4.32;;;;;;;35.98;25.61;98323.69;4812439;29;20143;-58
2023/04/17 06:53:58;;;;;;;16.27;4.43;;;;;;;36.00;24.55;98316.63;4813252;29;20057;-56
2023/04/17 06:56:27;;;;;;;12.35;4.70;;;;;;;35.83;20.12;98313.56;4816685;29;20062;-59
2023/04/17 06:58:56;;;;;;;10.88;4.18;;;;;;;35.87;20.07;98308.91;4816639;29;20062;-59
2023/04/17 07:01:30;;;;;;;12.55;4.78;;;;;;;36.12;21.17;98304.63;4811701;29;20129;-58
2023/04/17 07:03:59;;;;;;;11.40;4.32;;;;;;;36.06;24.58;98308.84;4814749;29;20062;-60
2023/04/17 07:06:30;;;;;;;12.80;4.35;;;;;;;36.01;22.59;98306.41;4816767;29;20539;-58
2023/04/17 07:09:01;;;;;;;14.43;5.47;;;;;;;35.80;25.31;98301.34;4815356;29;20142;-60
2023/04/17 07:11:31;;;;;;;12.18;4.15;;;;;;;35.50;23.38;98303.91;4811115;29;20137;-58
2023/04/17 07:14:00;;;;;;;12.48;4.32;;;;;;;35.68;21.46;98292.44;4816536;29;20050;-59
2023/04/17 07:16:29;;;;;;;9.13;4.35;;;;;;;35.74;23.95;98297.28;4812201;29;20538;-60
2023/04/17 07:18:58;;;;;;;12.57;3.92;;;;;;;35.77;22.14;98290.22;4814851;29;20161;-57
2023/04/17 07:21:28;;;;;;;19.05;4.10;;;;;;;35.67;22.08;98283.41;4829942;29;20050;-59
2023/04/17 07:23:57;;;;;;;10.45;4.32;;;;;;;35.71;25.17;98288.97;4831096;29;20050;-58
2023/04/17 07:26:27;;;;;;;14.68;4.72;;;;;;;35.76;23.60;98288.66;4834604;29;20057;-59
2023/04/17 07:28:56;;;;;;;13.10;4.30;;;;;;;35.64;21.78;98286.03;4828723;29;20169;-58
2023/04/17 07:31:27;;;;;;;14.95;4.10;;;;;;;35.65;24.66;98284.91;4834561;29;20517;-58
2023/04/17 07:33:56;;;;;;;12.55;3.88;;;;;;;35.64;25.36;98277.78;4836420;29;20077;-59
2023/04/17 07:36:27;;;;;;;11.35;3.90;;;;;;;35.29;25.60;98273.25;4819245;29;20625;-58
2023/04/17 07:38:56;;;;;;;11.30;3.72;;;;;;;35.23;24.42;98268.41;4836820;29;20497;-60
2023/04/17 07:41:26;;;;;;;14.35;3.97;;;;;;;35.17;25.92;98264.34;4819573;29;20803;-60
2023/04/17 07:43:55;;;;;;;22.30;4.25;;;;;;;35.37;27.04;98263.94;4816125;29;20068;-62
2023/04/17 07:46:26;;;;;;;12.82;4.07;;;;;;;35.58;25.44;98263.53;4833248;29;20057;-59
2023/04/17 07:48:56;;;;;;;10.73;3.75;;;;;;;35.71;24.40;98258.66;4836641;29;20054;-57
2023/04/17 07:51:25;;;;;;;12.23;3.72;;;;;;;35.67;23.74;98264.13;4825789;29;20062;-59
2023/04/17 07:53:54;;;;;;;17.25;4.32;;;;;;;35.81;21.46;98253.28;4834511;29;20053;-59
2023/04/17 07:57:25;;;;;;;18.15;4.05;;;;;;;35.95;18.63;98252.72;4837286;29;20060;-59
2023/04/17 07:59:54;;;;;;;;;;;;;;;35.94;24.30;98251.94;4819853;29;20173;-59
2023/04/17 08:02:24;;;;;;;10.63;3.33;;;;;;;35.70;26.75;98246.03;4825204;29;19931;-58
2023/04/17 08:04:54;;;;;;;18.52;5.38;;;;;;;35.48;23.22;98239.34;4823531;29;20057;-59
2023/04/17 08:07:24;;;;;;;13.88;3.60;;;;;;;35.44;22.73;98244.78;4817143;29;20490;-60
2023/04/17 08:09:53;;;;;;;20.73;4.63;;;;;;;35.45;23.06;98234.56;4817909;29;20066;-60
2023/04/17 08:12:22;;;;;;;13.02;4.35;;;;;;;35.35;21.61;98232.44;4818298;29;20062;-59
2023/04/17 08:14:51;;;;;;;13.70;4.60;;;;;;;35.57;21.28;98226.13;4832992;29;20060;-59
2023/04/17 08:17:22;;;;;;;14.68;4.18;;;;;;;35.75;22.56;98221.72;4812357;29;20042;-59
2023/04/17 08:19:56;;;;;;;12.13;3.95;;;;;;;35.90;23.43;98222.72;4835779;29;20046;-60
2023/04/17 08:22:27;;;;;;;16.42;4.13;;;;;;;35.76;24.94;98223.28;4827456;29;20056;-58
2023/04/17 08:24:56;;;;;;;11.80;4.18;;;;;;;35.71;27.52;98217.31;4836826;29;20407;-59
2023/04/17 08:27:26;;;;;;;11.77;4.05;;;;;;;35.58;22.48;98217.47;4837024;29;20061;-59
2023/04/17 08:29:55;;;;;;;14.13;4.60;;;;;;;35.44;25.30;98211.75;4836822;29;20816;-59
2023/04/17 08:32:25;;;;;;;13.45;4.30;;;;;;;35.32;25.20;98206.41;4825980;29;20099;-60
2023/04/17 08:34:57;;;;;;;11.45;4.03;;;;;;;35.00;26.86;98205.03;4834040;29;20072;-59
2023/04/17 08:37:27;;;;;;;;;;;;;;;34.83;24.05;98202.75;4829077;29;20562;-60
2023/04/17 08:39:56;;;;;;;16.33;5.03;;;;;;;34.98;24.26;98186.09;4825876;29;20027;-60
2023/04/17 08:42:27;;;;;;;17.45;4.28;;;;;;;34.73;26.45;98193.09;4839384;29;20046;-59
2023/04/17 08:45:08;;;;;;;18.13;4.17;;;;;;;34.49;25.68;98182.38;4828703;29;20169;-59
2023/04/17 08:47:42;;;;;;;15.65;4.57;;;;;;;34.33;28.10;98179.69;4830701;29;20050;-59
2023/04/17 08:50:15;;;;;;;16.27;4.47;;;;;;;34.77;23.36;98182.97;4825586;29;20073;-61
2023/04/17 08:52:45;;;;;;;11.35;4.07;;;;;;;34.81;23.23;98172.00;4831176;29;20058;-60
2023/04/17 08:55:18;;;;;;;21.27;4.43;;;;;;;35.04;22.73;98170.88;4831382;29;20535;-59
2023/04/17 08:58:02;;;;;;;15.20;4.63;;;;;;;34.85;25.10;98168.16;4836046;29;20057;-62
2023/04/17 09:00:43;;;;;;;12.52;4.15;;;;;;;34.68;25.77;98157.63;4818951;29;20516;-60
2023/04/17 09:03:14;;;;;;;17.63;4.20;;;;;;;34.24;27.24;98151.63;4820016;29;20125;-59
2023/04/17 09:05:45;;;;;;;11.05;4.00;;;;;;;34.03;27.20;98149.19;4836671;29;20636;-58
2023/04/17 09:08:24;;;;;;;9.07;4.20;;;;;;;34.01;26.37;98140.50;4834566;29;20072;-60
2023/04/17 09:10:54;;;;;;;17.35;4.13;;;;;;;34.26;23.82;98138.28;4835886;29;20069;-59
2023/04/17 09:13:26;;;;;;;17.55;4.03;;;;;;;34.22;23.32;98134.66;4835125;29;20058;-61
2023/04/17 09:16:07;;;;;;;15.75;4.28;;;;;;;34.01;24.33;98131.44;4836109;29;20062;-60
2023/04/17 09:18:38;;;;;;;18.15;4.32;;;;;;;33.60;27.08;98128.16;4830215;29;20061;-60
2023/04/17 09:21:08;;;;;;;18.05;5.35;;;;;;;33.53;27.75;98125.25;4837132;29;20060;-60
2023/04/17 09:23:58;;;;;;;14.68;3.90;;;;;;;33.44;28.19;98112.88;4835723;29;20136;-58
2023/04/17 09:26:32;;;;;;;16.83;4.10;;;;;;;33.73;24.87;98107.69;4835861;29;20062;-58
2023/04/17 09:29:12;;;;;;;12.35;3.70;;;;;;;33.98;24.85;98101.94;4833681;29;20449;-59
2023/04/17 09:31:43;;;;;;;13.40;3.92;;;;;;;34.13;24.78;98101.88;4817639;29;20507;-59
2023/04/17 09:34:15;;;;;;;17.67;3.53;;;;;;;34.31;23.15;98101.44;4835616;29;20061;-60
2023/04/17 09:36:44;;;;;;;9.75;3.72;;;;;;;34.40;24.00;98091.81;4818962;29;20068;-61
2023/04/17 09:39:19;;;;;;;12.05;3.55;;;;;;;34.26;26.64;98097.84;4835443;29;20053;-59
2023/04/17 09:41:49;;;;;;;21.73;3.90;;;;;;;34.35;23.12;98092.13;4817804;29;20038;-61
2023/04/17 09:44:28;;;;;;;13.98;4.43;;;;;;;34.30;24.47;98094.38;4823757;29;20050;-60
2023/04/17 09:46:59;;;;;;;12.15;4.75;;;;;;;34.16;22.37;98094.88;4833892;29;20516;-59
2023/04/17 09:49:40;;;;;;;10.77;4.57;;;;;;;34.19;24.25;98094.16;4819219;29;20088;-60
2023/04/17 09:52:11;;;;;;;12.10;3.75;;;;;;;33.92;25.83;98086.88;4831637;29;20058;-59
2023/04/17 09:54:41;;;;;;;14.85;4.43;;;;;;;33.77;24.38;98083.03;4834973;29;20081;-60
2023/04/17 09:57:11;;;;;;;17.17;4.22;;;;;;;33.61;26.85;98079.53;4833828;29;20062;-60
2023/04/17 09:59:47;;;;;;;9.15;3.83;;;;;;;33.44;27.36;98075.22;4835615;29;20121;-59
2023/04/17 10:02:19;;;;;;;11.18;4.30;;;;;;;33.28;28.49;98079.97;4834301;29;20054;-60
2023/04/17 10:04:49;;;;;;;12.35;4.32;;;;;;;33.28;26.63;98075.25;4830548;29;20628;-60
2023/04/17 10:07:19;;;;;;;13.70;3.63;;;;;;;33.36;27.71;98068.00;4834929;29;20060;-60
2023/04/17 10:09:48;;;;;;;21.02;4.30;;;;;;;33.52;26.36;98065.19;4835267;29;20054;-61
2023/04/17 10:12:19;;;;;;;17.20;5.00;;;;;;;33.40;27.39;98068.88;4818364;29;20061;-60
2023/04/17 10:14:51;;;;;;;16.85;4.45;;;;;;;33.36;27.97;98068.78;4812451;29;20453;-60
2023/04/17 10:17:31;;;;;;;17.08;4.65;;;;;;;33.28;29.08;98068.97;4816170;29;20471;-60
2023/04/17 10:20:22;;;;;;;12.90;4.60;;;;;;;33.17;29.32;98065.19;4834745;29;20069;-60
2023/04/17 10:22:55;;;;;;;15.07;4.90;;;;;;;33.05;30.65;98065.25;4832280;29;20533;-57
2023/04/17 10:26:28;;;;;;;17.25;4.30;;;;;;;33.00;31.07;98055.34;4825775;29;20084;-60
2023/04/17 10:28:58;;;;;;;21.08;4.10;;;;;;;32.88;31.14;98056.22;4841037;29;20050;-58
2023/04/17 10:32:09;;;;;;;16.02;4.88;;;;;;;32.87;29.10;98054.66;4842386;29;20408;-58
2023/04/17 10:34:39;;;;;;;11.93;3.78;;;;;;;32.88;29.65;98053.47;4836421;29;20074;-58
2023/04/17 10:37:14;;;;;;;12.95;3.75;;;;;;;32.83;30.79;98052.97;4831229;29;20077;-61
2023/04/17 10:40:00;;;;;;;;;;;;;;;32.87;29.83;98048.34;4831630;29;20053;-60
2023/04/17 10:42:31;;;;;;;13.77;3.95;;;;;;;32.84;30.38;98044.34;4815617;29;20420;-59
2023/04/17 10:45:04;;;;;;;15.68;3.67;;;;;;;32.75;30.22;98051.97;4835472;29;20118;-60
2023/04/17 10:47:34;;;;;;;12.18;3.50;;;;;;;32.65;32.29;98048.97;4843884;29;20457;-60
2023/04/17 10:50:08;;;;;;;17.88;3.55;;;;;;;32.67;29.79;98052.94;4837886;29;20169;-59
2023/04/17 10:52:40;;;;;;;13.20;4.07;;;;;;;32.84;30.06;98047.09;4834440;29;20858;-60
2023/04/17 10:55:19;;;;;;;15.10;4.63;;;;;;;32.76;30.84;98047.28;4837071;29;20489;-58
2023/04/17 10:58:11;;;;;;;14.25;3.50;;;;;;;32.66;31.18;98050.56;4821285;29;20126;-59
2023/04/17 11:00:51;;;;;;;18.58;4.40;;;;;;;32.58;30.81;98044.06;4821937;29;20054;-60
2023/04/17 11:03:22;;;;;;;8.10;3.67;;;;;;;32.44;32.23;98041.75;4837298;29;20133;-60
2023/04/17 11:05:52;;;;;;;19.10;4.63;;;;;;;32.58;28.93;98030.34;4834397;29;20046;-60
2023/04/17 11:08:23;;;;;;;20.98;4.30;;;;;;;32.70;25.91;98037.75;4838986;29;20073;-61
2023/04/17 11:10:56;;;;;;;18.42;3.88;;;;;;;32.57;30.61;98033.47;4846932;29;20058;-60
2023/04/17 11:13:25;;;;;;;14.20;4.77;;;;;;;32.62;29.28;98036.75;4841676;29;20069;-61
2023/04/17 11:15:54;;;;;;;9.98;3.47;;;;;;;32.60;29.01;98041.78;4839655;29;20050;-61
2023/04/17 11:18:25;;;;;;;11.85;3.83;;;;;;;32.58;29.86;98040.50;4805741;29;20118;-61
2023/04/17 11:20:56;;;;;;;14.38;4.03;;;;;;;32.51;30.92;98039.19;4837452;29;20050;-60
2023/04/17 11:23:32;;;;;;;23.10;3.73;;;;;;;32.55;29.97;98039.28;4835336;29;20783;-60
2023/04/17 11:26:02;;;;;;;14.02;3.83;;;;;;;32.41;30.02;98041.66;4818598;29;20137;-61
2023/04/17 11:28:31;;;;;;;22.58;4.60;;;;;;;32.75;28.34;98048.44;4835396;29;20057;-61
2023/04/17 11:31:01;;;;;;;20.85;4.90;;;;;;;32.66;29.59;98047.81;4833536;29;20786;-60
2023/04/17 11:33:37;;;;;;;15.02;4.53;;;;;;;32.51;31.50;98043.88;4835845;29;20046;-61
2023/04/17 11:36:07;;;;;;;15.75;4.93;;;;;;;32.33;31.69;98053.56;4834154;29;20065;-60
2023/04/17 11:38:47;;;;;;;21.63;4.57;;;;;;;32.19;32.12;98050.44;4818947;29;20046;-59
2023/04/17 11:41:16;;;;;;;20.17;5.07;;;;;;;32.14;32.48;98046.00;4835272;29;20054;-58
2023/04/17 11:43:46;;;;;;;22.13;5.22;;;;;;;31.98;32.22;98048.69;4835997;29;20762;-59
2023/04/17 11:46:18;;;;;;;15.95;5.10;;;;;;;31.86;33.48;98048.75;4834918;29;20102;-59
2023/04/17 11:48:49;;;;;;;23.08;5.03;;;;;;;31.99;29.30;98052.22;4835317;29;20053;-59
2023/04/17 11:51:18;;;;;;;14.05;4.55;;;;;;;32.02;31.16;98057.00;4835745;29;20141;-60
2023/04/17 11:53:49;;;;;;;21.92;5.10;;;;;;;31.99;30.72;98050.28;4836731;29;20053;-62
2023/04/17 11:56:19;;;;;;;16.88;4.80;;;;;;;32.03;29.54;98048.44;4835062;29;20046;-60
2023/04/17 11:58:51;;;;;;;17.70;4.75;;;;;;;32.17;29.49;98052.75;4836498;29;20054;-59
2023/04/17 12:01:26;;;;;;;26.05;4.78;;;;;;;32.17;30.90;98042.59;4836724;29;20085;-58
2023/04/17 12:03:57;;;;;;;17.00;5.47;;;;;;;32.18;29.66;98049.66;4829087;29;20050;-58
2023/04/17 12:06:37;;;;;;;19.88;4.93;;;;;;;32.17;30.26;98047.28;4830453;29;20386;-58
2023/04/17 12:09:23;;;;;;;15.50;5.13;;;;;;;32.24;30.03;98050.19;4829844;29;20056;-58
2023/04/17 12:11:52;;;;;;;27.63;5.93;;;;;;;32.30;27.99;98049.59;4837069;29;20388;-59
2023/04/17 12:15:20;;;;;;;14.30;5.07;;;;;;;32.61;24.78;98056.28;4832145;29;20065;-59
2023/04/17 12:17:49;;;;;;;18.90;5.22;;;;;;;32.87;24.76;98060.13;4830853;29;20058;-63
2023/04/17 12:20:19;;;;;;;22.10;5.10;;;;;;;33.15;24.45;98062.00;4825661;29;20046;-66
2023/04/17 12:22:48;;;;;;;24.70;5.20;;;;;;;33.29;25.10;98071.34;4832233;29;20073;-64
2023/04/17 12:25:18;;;;;;;14.93;5.00;;;;;;;33.25;25.62;98067.72;4833997;29;20054;-63
2023/04/17 12:27:47;;;;;;;19.70;6.13;;;;;;;33.13;27.25;98069.75;4836685;29;20062;-65
2023/04/17 12:30:16;;;;;;;18.85;5.88;;;;;;;32.85;30.52;98073.38;4829313;29;20054;-64
2023/04/17 12:32:47;;;;;;;17.52;5.95;;;;;;;32.56;32.25;98073.00;4835503;29;20064;-63
2023/04/17 12:35:20;;;;;;;21.35;5.82;;;;;;;32.28;31.48;98068.34;4822868;29;20053;-62
2023/04/17 12:37:50;;;;;;;22.23;6.88;;;;;;;32.04;32.57;98065.69;4835049;29;20061;-65
2023/04/17 12:40:21;;;;;;;19.98;6.88;;;;;;;31.80;33.78;98077.50;4833258;29;20050;-63